sensor_id;sensor_type;location;lat;lon;timestamp;P1;durP1;ratioP1;P2;durP2;ratioP2
20056;SDS011;10189;49.546;7.906;2024-03-02T00:00:50;4.35;;;2.83;;
20056;SDS011;10189;49.546;7.906;2024-03-02T00:03:17;4.27;;;3.20;;
20056;SDS011;10189;49.546;7.906;2024-03-02T00:06:15;7.22;;;5.80;;
20056;SDS011;10189;49.546;7.906;2024-03-02T00:08:47;10.38;;;8.02;;
20056;SDS011;10189;49.546;7.906;2024-03-02T00:15:00;8.43;;;6.15;;
20056;SDS011;10189;49.546;7.906;2024-03-02T00:17:27;5.35;;;4.10;;
20056;SDS011;10189;49.546;7.906;2024-03-02T00:19:54;3.83;;;3.50;;
20056;SDS011;10189;49.546;7.906;2024-03-02T00:22:20;5.75;;;3.30;;
20056;SDS011;10189;49.546;7.906;2024-03-02T00:24:47;5.47;;;4.75;;
20056;SDS011;10189;49.546;7.906;2024-03-02T00:27:14;4.25;;;3.47;;
20056;SDS011;10189;49.546;7.906;2024-03-02T00:29:43;4.10;;;3.35;;
20056;SDS011;10189;49.546;7.906;2024-03-02T00:32:11;6.45;;;4.78;;
20056;SDS011;10189;49.546;7.906;2024-03-02T00:34:41;10.00;;;7.07;;
20056;SDS011;10189;49.546;7.906;2024-03-02T00:37:06;8.85;;;6.30;;
20056;SDS011;10189;49.546;7.906;2024-03-02T00:39:33;5.57;;;4.90;;
20056;SDS011;10189;49.546;7.906;2024-03-02T00:41:59;6.57;;;5.18;;
20056;SDS011;10189;49.546;7.906;2024-03-02T00:44:25;4.72;;;3.83;;
20056;SDS011;10189;49.546;7.906;2024-03-02T00:46:51;4.05;;;3.17;;
20056;SDS011;10189;49.546;7.906;2024-03-02T00:49:20;3.40;;;3.10;;
20056;SDS011;10189;49.546;7.906;2024-03-02T00:51:48;3.20;;;2.83;;
20056;SDS011;10189;49.546;7.906;2024-03-02T00:54:21;5.15;;;4.00;;
20056;SDS011;10189;49.546;7.906;2024-03-02T00:56:51;4.05;;;3.30;;
20056;SDS011;10189;49.546;7.906;2024-03-02T00:59:20;3.60;;;3.30;;
20056;SDS011;10189;49.546;7.906;2024-03-02T01:01:47;4.38;;;3.17;;
20056;SDS011;10189;49.546;7.906;2024-03-02T01:04:15;5.93;;;3.20;;
20056;SDS011;10189;49.546;7.906;2024-03-02T01:06:44;3.85;;;3.13;;
20056;SDS011;10189;49.546;7.906;2024-03-02T01:09:10;3.60;;;3.20;;
20056;SDS011;10189;49.546;7.906;2024-03-02T01:11:37;5.82;;;3.30;;
20056;SDS011;10189;49.546;7.906;2024-03-02T01:14:03;3.47;;;2.80;;
20056;SDS011;10189;49.546;7.906;2024-03-02T01:16:29;3.83;;;2.95;;
20056;SDS011;10189;49.546;7.906;2024-03-02T01:18:55;4.55;;;3.30;;
20056;SDS011;10189;49.546;7.906;2024-03-02T01:21:21;4.25;;;3.22;;
20056;SDS011;10189;49.546;7.906;2024-03-02T01:23:47;4.80;;;3.20;;
20056;SDS011;10189;49.546;7.906;2024-03-02T01:26:13;4.20;;;2.70;;
20056;SDS011;10189;49.546;7.906;2024-03-02T01:28:39;3.53;;;3.05;;
20056;SDS011;10189;49.546;7.906;2024-03-02T01:31:04;3.67;;;3.15;;
20056;SDS011;10189;49.546;7.906;2024-03-02T01:33:30;4.57;;;3.38;;
20056;SDS011;10189;49.546;7.906;2024-03-02T01:35:56;5.38;;;3.85;;
20056;SDS011;10189;49.546;7.906;2024-03-02T01:38:22;4.97;;;3.50;;
20056;SDS011;10189;49.546;7.906;2024-03-02T01:40:48;4.85;;;4.35;;
20056;SDS011;10189;49.546;7.906;2024-03-02T01:43:14;5.15;;;4.30;;
20056;SDS011;10189;49.546;7.906;2024-03-02T01:45:40;6.03;;;4.22;;
20056;SDS011;10189;49.546;7.906;2024-03-02T01:48:06;6.70;;;4.72;;
20056;SDS011;10189;49.546;7.906;2024-03-02T01:50:32;4.03;;;3.10;;
20056;SDS011;10189;49.546;7.906;2024-03-02T01:52:59;5.85;;;4.18;;
20056;SDS011;10189;49.546;7.906;2024-03-02T01:55:27;4.25;;;3.50;;
20056;SDS011;10189;49.546;7.906;2024-03-02T01:57:58;5.38;;;3.72;;
20056;SDS011;10189;49.546;7.906;2024-03-02T02:00:24;5.80;;;3.97;;
20056;SDS011;10189;49.546;7.906;2024-03-02T02:02:51;4.00;;;3.60;;
20056;SDS011;10189;49.546;7.906;2024-03-02T02:05:17;4.25;;;3.85;;
20056;SDS011;10189;49.546;7.906;2024-03-02T02:07:44;4.18;;;3.70;;
20056;SDS011;10189;49.546;7.906;2024-03-02T02:10:10;4.95;;;3.70;;
20056;SDS011;10189;49.546;7.906;2024-03-02T02:12:36;6.40;;;4.00;;
20056;SDS011;10189;49.546;7.906;2024-03-02T02:15:03;3.40;;;2.95;;
20056;SDS011;10189;49.546;7.906;2024-03-02T02:17:46;5.80;;;5.20;;
20056;SDS011;10189;49.546;7.906;2024-03-02T02:20:12;3.65;;;3.35;;
20056;SDS011;10189;49.546;7.906;2024-03-02T02:22:38;4.97;;;3.13;;
20056;SDS011;10189;49.546;7.906;2024-03-02T02:25:04;4.07;;;2.92;;
20056;SDS011;10189;49.546;7.906;2024-03-02T02:27:31;6.35;;;3.60;;
20056;SDS011;10189;49.546;7.906;2024-03-02T02:29:57;5.85;;;4.15;;
20056;SDS011;10189;49.546;7.906;2024-03-02T02:32:22;4.97;;;3.97;;
20056;SDS011;10189;49.546;7.906;2024-03-02T02:34:52;5.97;;;3.92;;
20056;SDS011;10189;49.546;7.906;2024-03-02T02:37:18;5.00;;;3.60;;
20056;SDS011;10189;49.546;7.906;2024-03-02T02:39:44;5.13;;;3.97;;
20056;SDS011;10189;49.546;7.906;2024-03-02T02:42:11;6.18;;;4.22;;
20056;SDS011;10189;49.546;7.906;2024-03-02T02:44:37;5.35;;;3.92;;
20056;SDS011;10189;49.546;7.906;2024-03-02T02:47:03;5.50;;;4.28;;
20056;SDS011;10189;49.546;7.906;2024-03-02T02:49:30;6.32;;;4.43;;
20056;SDS011;10189;49.546;7.906;2024-03-02T02:51:56;5.55;;;3.92;;
20056;SDS011;10189;49.546;7.906;2024-03-02T02:54:22;5.13;;;3.92;;
20056;SDS011;10189;49.546;7.906;2024-03-02T02:56:48;5.18;;;4.13;;
20056;SDS011;10189;49.546;7.906;2024-03-02T02:59:14;6.28;;;4.38;;
20056;SDS011;10189;49.546;7.906;2024-03-02T03:01:39;4.63;;;3.92;;
20056;SDS011;10189;49.546;7.906;2024-03-02T03:04:05;7.20;;;3.97;;
20056;SDS011;10189;49.546;7.906;2024-03-02T03:06:31;6.07;;;4.60;;
20056;SDS011;10189;49.546;7.906;2024-03-02T03:08:58;5.47;;;4.40;;
20056;SDS011;10189;49.546;7.906;2024-03-02T03:11:24;5.70;;;4.65;;
20056;SDS011;10189;49.546;7.906;2024-03-02T03:13:51;7.30;;;4.30;;
20056;SDS011;10189;49.546;7.906;2024-03-02T03:16:19;5.60;;;4.68;;
20056;SDS011;10189;49.546;7.906;2024-03-02T03:18:46;5.88;;;4.68;;
20056;SDS011;10189;49.546;7.906;2024-03-02T03:21:12;4.85;;;4.05;;
20056;SDS011;10189;49.546;7.906;2024-03-02T03:23:37;4.13;;;3.72;;
20056;SDS011;10189;49.546;7.906;2024-03-02T03:26:03;5.50;;;4.30;;
20056;SDS011;10189;49.546;7.906;2024-03-02T03:28:29;7.90;;;4.72;;
20056;SDS011;10189;49.546;7.906;2024-03-02T03:30:55;5.53;;;4.75;;
20056;SDS011;10189;49.546;7.906;2024-03-02T03:33:21;6.60;;;4.93;;
20056;SDS011;10189;49.546;7.906;2024-03-02T03:35:47;5.70;;;4.38;;
20056;SDS011;10189;49.546;7.906;2024-03-02T03:38:16;5.90;;;4.72;;
20056;SDS011;10189;49.546;7.906;2024-03-02T03:40:42;6.88;;;4.82;;
20056;SDS011;10189;49.546;7.906;2024-03-02T03:43:09;6.07;;;4.78;;
20056;SDS011;10189;49.546;7.906;2024-03-02T03:45:34;6.95;;;4.75;;
20056;SDS011;10189;49.546;7.906;2024-03-02T03:48:02;5.82;;;4.50;;
20056;SDS011;10189;49.546;7.906;2024-03-02T03:50:30;7.25;;;5.03;;
20056;SDS011;10189;49.546;7.906;2024-03-02T03:52:56;6.05;;;4.75;;
20056;SDS011;10189;49.546;7.906;2024-03-02T03:55:24;6.30;;;4.75;;
20056;SDS011;10189;49.546;7.906;2024-03-02T03:57:50;6.97;;;4.88;;
20056;SDS011;10189;49.546;7.906;2024-03-02T04:00:17;6.88;;;4.90;;
20056;SDS011;10189;49.546;7.906;2024-03-02T04:02:43;7.45;;;5.40;;
20056;SDS011;10189;49.546;7.906;2024-03-02T04:05:09;7.70;;;6.50;;
20056;SDS011;10189;49.546;7.906;2024-03-02T04:07:36;7.40;;;5.07;;
20056;SDS011;10189;49.546;7.906;2024-03-02T04:10:06;6.93;;;5.20;;
20056;SDS011;10189;49.546;7.906;2024-03-02T04:12:34;7.00;;;5.03;;
20056;SDS011;10189;49.546;7.906;2024-03-02T04:15:04;7.20;;;5.20;;
20056;SDS011;10189;49.546;7.906;2024-03-02T04:17:32;5.93;;;4.47;;
20056;SDS011;10189;49.546;7.906;2024-03-02T04:19:59;8.77;;;5.13;;
20056;SDS011;10189;49.546;7.906;2024-03-02T04:22:26;6.45;;;5.28;;
20056;SDS011;10189;49.546;7.906;2024-03-02T04:24:52;6.60;;;4.82;;
20056;SDS011;10189;49.546;7.906;2024-03-02T04:27:19;7.05;;;5.70;;
20056;SDS011;10189;49.546;7.906;2024-03-02T04:29:45;6.95;;;5.53;;
20056;SDS011;10189;49.546;7.906;2024-03-02T04:32:11;7.60;;;5.63;;
20056;SDS011;10189;49.546;7.906;2024-03-02T04:34:37;7.43;;;5.10;;
20056;SDS011;10189;49.546;7.906;2024-03-02T04:37:02;7.30;;;5.50;;
20056;SDS011;10189;49.546;7.906;2024-03-02T04:39:28;7.22;;;5.68;;
20056;SDS011;10189;49.546;7.906;2024-03-02T04:41:54;7.78;;;5.80;;
20056;SDS011;10189;49.546;7.906;2024-03-02T04:44:20;9.13;;;6.15;;
20056;SDS011;10189;49.546;7.906;2024-03-02T04:46:46;8.60;;;5.78;;
20056;SDS011;10189;49.546;7.906;2024-03-02T04:49:12;7.53;;;5.78;;
20056;SDS011;10189;49.546;7.906;2024-03-02T04:51:37;9.57;;;6.07;;
20056;SDS011;10189;49.546;7.906;2024-03-02T04:54:03;9.05;;;6.57;;
20056;SDS011;10189;49.546;7.906;2024-03-02T04:56:29;8.60;;;6.18;;
20056;SDS011;10189;49.546;7.906;2024-03-02T04:58:58;8.60;;;5.93;;
20056;SDS011;10189;49.546;7.906;2024-03-02T05:01:24;7.43;;;5.35;;
20056;SDS011;10189;49.546;7.906;2024-03-02T05:03:51;7.82;;;5.80;;
20056;SDS011;10189;49.546;7.906;2024-03-02T05:06:18;8.15;;;5.35;;
20056;SDS011;10189;49.546;7.906;2024-03-02T05:08:45;7.57;;;6.10;;
20056;SDS011;10189;49.546;7.906;2024-03-02T05:11:13;7.43;;;5.97;;
20056;SDS011;10189;49.546;7.906;2024-03-02T05:14:13;7.95;;;5.57;;
20056;SDS011;10189;49.546;7.906;2024-03-02T05:16:40;6.70;;;5.15;;
20056;SDS011;10189;49.546;7.906;2024-03-02T05:19:07;6.47;;;5.00;;
20056;SDS011;10189;49.546;7.906;2024-03-02T05:21:33;7.72;;;4.95;;
20056;SDS011;10189;49.546;7.906;2024-03-02T05:24:00;6.65;;;4.88;;
20056;SDS011;10189;49.546;7.906;2024-03-02T05:26:26;6.80;;;4.78;;
20056;SDS011;10189;49.546;7.906;2024-03-02T05:28:52;7.00;;;4.78;;
20056;SDS011;10189;49.546;7.906;2024-03-02T05:31:19;6.97;;;4.30;;
20056;SDS011;10189;49.546;7.906;2024-03-02T05:33:45;5.18;;;4.18;;
20056;SDS011;10189;49.546;7.906;2024-03-02T05:36:11;5.05;;;3.92;;
20056;SDS011;10189;49.546;7.906;2024-03-02T05:38:37;4.68;;;3.42;;
20056;SDS011;10189;49.546;7.906;2024-03-02T05:41:03;4.75;;;3.47;;
20056;SDS011;10189;49.546;7.906;2024-03-02T05:43:30;6.07;;;3.70;;
20056;SDS011;10189;49.546;7.906;2024-03-02T05:45:56;4.93;;;3.40;;
20056;SDS011;10189;49.546;7.906;2024-03-02T05:48:22;4.63;;;3.63;;
20056;SDS011;10189;49.546;7.906;2024-03-02T05:50:48;4.45;;;3.33;;
20056;SDS011;10189;49.546;7.906;2024-03-02T05:53:14;5.18;;;3.42;;
20056;SDS011;10189;49.546;7.906;2024-03-02T05:55:40;5.63;;;3.85;;
20056;SDS011;10189;49.546;7.906;2024-03-02T05:58:06;4.88;;;3.78;;
20056;SDS011;10189;49.546;7.906;2024-03-02T06:00:51;5.25;;;3.60;;
20056;SDS011;10189;49.546;7.906;2024-03-02T06:03:17;4.10;;;3.10;;
20056;SDS011;10189;49.546;7.906;2024-03-02T06:05:43;4.68;;;3.30;;
20056;SDS011;10189;49.546;7.906;2024-03-02T06:08:10;5.00;;;3.70;;
20056;SDS011;10189;49.546;7.906;2024-03-02T06:10:36;4.60;;;3.60;;
20056;SDS011;10189;49.546;7.906;2024-03-02T06:13:02;3.55;;;3.25;;
20056;SDS011;10189;49.546;7.906;2024-03-02T06:15:29;4.60;;;3.25;;
20056;SDS011;10189;49.546;7.906;2024-03-02T06:17:55;4.45;;;3.17;;
20056;SDS011;10189;49.546;7.906;2024-03-02T06:20:21;4.22;;;3.13;;
20056;SDS011;10189;49.546;7.906;2024-03-02T06:22:47;4.13;;;3.30;;
20056;SDS011;10189;49.546;7.906;2024-03-02T06:25:13;3.40;;;3.10;;
20056;SDS011;10189;49.546;7.906;2024-03-02T06:27:40;4.38;;;3.22;;
20056;SDS011;10189;49.546;7.906;2024-03-02T06:30:06;4.53;;;3.00;;
20056;SDS011;10189;49.546;7.906;2024-03-02T06:32:33;3.05;;;2.75;;
20056;SDS011;10189;49.546;7.906;2024-03-02T06:34:59;3.92;;;3.00;;
20056;SDS011;10189;49.546;7.906;2024-03-02T06:37:25;4.50;;;3.15;;
20056;SDS011;10189;49.546;7.906;2024-03-02T06:39:51;4.28;;;3.00;;
20056;SDS011;10189;49.546;7.906;2024-03-02T06:42:16;4.13;;;2.97;;
20056;SDS011;10189;49.546;7.906;2024-03-02T06:44:42;2.97;;;2.67;;
20056;SDS011;10189;49.546;7.906;2024-03-02T06:47:08;3.35;;;2.90;;
20056;SDS011;10189;49.546;7.906;2024-03-02T06:49:34;2.85;;;2.55;;
20056;SDS011;10189;49.546;7.906;2024-03-02T06:52:00;4.80;;;2.85;;
20056;SDS011;10189;49.546;7.906;2024-03-02T06:54:26;3.42;;;2.90;;
20056;SDS011;10189;49.546;7.906;2024-03-02T06:56:52;3.72;;;2.97;;
20056;SDS011;10189;49.546;7.906;2024-03-02T06:59:18;3.60;;;3.00;;
20056;SDS011;10189;49.546;7.906;2024-03-02T07:01:43;5.07;;;3.10;;
20056;SDS011;10189;49.546;7.906;2024-03-02T07:04:09;4.25;;;2.83;;
20056;SDS011;10189;49.546;7.906;2024-03-02T07:06:35;3.53;;;2.80;;
20056;SDS011;10189;49.546;7.906;2024-03-02T07:09:01;3.45;;;2.70;;
20056;SDS011;10189;49.546;7.906;2024-03-02T07:11:27;4.18;;;2.88;;
20056;SDS011;10189;49.546;7.906;2024-03-02T07:13:53;4.18;;;3.28;;
20056;SDS011;10189;49.546;7.906;2024-03-02T07:16:19;4.30;;;3.00;;
20056;SDS011;10189;49.546;7.906;2024-03-02T07:18:55;4.90;;;3.95;;
20056;SDS011;10189;49.546;7.906;2024-03-02T07:21:22;4.80;;;3.42;;
20056;SDS011;10189;49.546;7.906;2024-03-02T07:23:48;5.18;;;3.08;;
20056;SDS011;10189;49.546;7.906;2024-03-02T07:26:15;3.78;;;2.72;;
20056;SDS011;10189;49.546;7.906;2024-03-02T07:28:41;3.58;;;3.10;;
20056;SDS011;10189;49.546;7.906;2024-03-02T07:31:09;3.92;;;3.47;;
20056;SDS011;10189;49.546;7.906;2024-03-02T07:33:35;3.75;;;2.97;;
20056;SDS011;10189;49.546;7.906;2024-03-02T07:36:01;3.50;;;3.13;;
20056;SDS011;10189;49.546;7.906;2024-03-02T07:38:31;3.78;;;3.03;;
20056;SDS011;10189;49.546;7.906;2024-03-02T07:40:59;3.70;;;2.80;;
20056;SDS011;10189;49.546;7.906;2024-03-02T07:43:25;4.30;;;3.03;;
20056;SDS011;10189;49.546;7.906;2024-03-02T07:45:51;3.40;;;3.00;;
20056;SDS011;10189;49.546;7.906;2024-03-02T07:48:18;3.10;;;2.58;;
20056;SDS011;10189;49.546;7.906;2024-03-02T07:50:43;5.35;;;4.00;;
20056;SDS011;10189;49.546;7.906;2024-03-02T07:53:09;4.15;;;3.50;;
20056;SDS011;10189;49.546;7.906;2024-03-02T07:55:36;5.32;;;4.00;;
20056;SDS011;10189;49.546;7.906;2024-03-02T07:58:02;3.58;;;3.17;;
20056;SDS011;10189;49.546;7.906;2024-03-02T08:00:28;3.30;;;3.00;;
20056;SDS011;10189;49.546;7.906;2024-03-02T08:02:54;3.65;;;2.70;;
20056;SDS011;10189;49.546;7.906;2024-03-02T08:05:21;4.15;;;2.70;;
20056;SDS011;10189;49.546;7.906;2024-03-02T08:07:47;3.63;;;2.15;;
20056;SDS011;10189;49.546;7.906;2024-03-02T08:10:17;5.07;;;1.83;;
20056;SDS011;10189;49.546;7.906;2024-03-02T08:12:44;3.28;;;2.95;;
20056;SDS011;10189;49.546;7.906;2024-03-02T08:15:10;4.07;;;2.70;;
20056;SDS011;10189;49.546;7.906;2024-03-02T08:17:38;4.00;;;2.70;;
20056;SDS011;10189;49.546;7.906;2024-03-02T08:20:13;3.10;;;2.80;;
20056;SDS011;10189;49.546;7.906;2024-03-02T08:22:39;4.18;;;2.80;;
20056;SDS011;10189;49.546;7.906;2024-03-02T08:25:06;3.72;;;2.80;;
20056;SDS011;10189;49.546;7.906;2024-03-02T08:27:33;3.28;;;2.40;;
20056;SDS011;10189;49.546;7.906;2024-03-02T08:29:59;3.35;;;2.65;;
20056;SDS011;10189;49.546;7.906;2024-03-02T08:32:25;3.00;;;2.47;;
20056;SDS011;10189;49.546;7.906;2024-03-02T08:34:51;2.53;;;2.00;;
20056;SDS011;10189;49.546;7.906;2024-03-02T08:37:16;6.32;;;4.10;;
20056;SDS011;10189;49.546;7.906;2024-03-02T08:39:42;5.28;;;3.70;;
20056;SDS011;10189;49.546;7.906;2024-03-02T08:42:10;2.90;;;2.60;;
20056;SDS011;10189;49.546;7.906;2024-03-02T08:44:36;3.40;;;2.05;;
20056;SDS011;10189;49.546;7.906;2024-03-02T08:47:02;2.83;;;2.03;;
20056;SDS011;10189;49.546;7.906;2024-03-02T08:49:29;3.35;;;2.00;;
20056;SDS011;10189;49.546;7.906;2024-03-02T08:51:54;2.35;;;2.15;;
20056;SDS011;10189;49.546;7.906;2024-03-02T08:54:21;4.25;;;1.98;;
20056;SDS011;10189;49.546;7.906;2024-03-02T08:56:50;2.58;;;2.08;;
20056;SDS011;10189;49.546;7.906;2024-03-02T08:59:16;5.10;;;3.10;;
20056;SDS011;10189;49.546;7.906;2024-03-02T09:01:42;18.20;;;16.38;;
20056;SDS011;10189;49.546;7.906;2024-03-02T09:04:08;10.85;;;9.80;;
20056;SDS011;10189;49.546;7.906;2024-03-02T09:06:34;6.30;;;4.63;;
20056;SDS011;10189;49.546;7.906;2024-03-02T09:09:00;6.63;;;4.57;;
20056;SDS011;10189;49.546;7.906;2024-03-02T09:11:26;4.32;;;3.92;;
20056;SDS011;10189;49.546;7.906;2024-03-02T09:13:52;4.13;;;3.65;;
20056;SDS011;10189;49.546;7.906;2024-03-02T09:16:19;5.70;;;4.18;;
20056;SDS011;10189;49.546;7.906;2024-03-02T09:18:45;5.05;;;3.50;;
20056;SDS011;10189;49.546;7.906;2024-03-02T09:21:12;4.05;;;3.65;;
20056;SDS011;10189;49.546;7.906;2024-03-02T09:23:38;4.38;;;3.40;;
20056;SDS011;10189;49.546;7.906;2024-03-02T09:26:05;6.60;;;5.90;;
20056;SDS011;10189;49.546;7.906;2024-03-02T09:28:31;5.07;;;4.00;;
20056;SDS011;10189;49.546;7.906;2024-03-02T09:30:57;12.15;;;11.02;;
20056;SDS011;10189;49.546;7.906;2024-03-02T09:33:23;4.07;;;3.67;;
20056;SDS011;10189;49.546;7.906;2024-03-02T09:35:48;2.83;;;2.08;;
20056;SDS011;10189;49.546;7.906;2024-03-02T09:38:14;3.38;;;2.50;;
20056;SDS011;10189;49.546;7.906;2024-03-02T09:40:41;3.63;;;2.65;;
20056;SDS011;10189;49.546;7.906;2024-03-02T09:43:08;3.63;;;2.67;;
20056;SDS011;10189;49.546;7.906;2024-03-02T09:45:35;5.63;;;4.53;;
20056;SDS011;10189;49.546;7.906;2024-03-02T09:48:01;5.20;;;4.40;;
20056;SDS011;10189;49.546;7.906;2024-03-02T09:50:27;6.05;;;4.00;;
20056;SDS011;10189;49.546;7.906;2024-03-02T09:52:53;5.60;;;4.50;;
20056;SDS011;10189;49.546;7.906;2024-03-02T09:55:19;5.95;;;4.18;;
20056;SDS011;10189;49.546;7.906;2024-03-02T09:57:46;5.70;;;5.05;;
20056;SDS011;10189;49.546;7.906;2024-03-02T10:00:13;5.00;;;4.30;;
20056;SDS011;10189;49.546;7.906;2024-03-02T10:02:40;4.93;;;4.05;;
20056;SDS011;10189;49.546;7.906;2024-03-02T10:05:08;6.85;;;5.15;;
20056;SDS011;10189;49.546;7.906;2024-03-02T10:07:34;7.30;;;4.63;;
20056;SDS011;10189;49.546;7.906;2024-03-02T10:10:12;4.97;;;4.50;;
20056;SDS011;10189;49.546;7.906;2024-03-02T10:12:40;5.47;;;4.57;;
20056;SDS011;10189;49.546;7.906;2024-03-02T10:15:06;6.72;;;5.20;;
20056;SDS011;10189;49.546;7.906;2024-03-02T10:17:34;9.20;;;5.68;;
20056;SDS011;10189;49.546;7.906;2024-03-02T10:20:20;8.88;;;6.75;;
20056;SDS011;10189;49.546;7.906;2024-03-02T10:22:50;8.52;;;7.32;;
20056;SDS011;10189;49.546;7.906;2024-03-02T10:27:58;10.38;;;8.65;;
20056;SDS011;10189;49.546;7.906;2024-03-02T10:30:25;10.57;;;9.48;;
20056;SDS011;10189;49.546;7.906;2024-03-02T10:32:53;11.05;;;9.85;;
20056;SDS011;10189;49.546;7.906;2024-03-02T10:35:21;11.20;;;9.75;;
20056;SDS011;10189;49.546;7.906;2024-03-02T10:37:49;10.43;;;9.27;;
20056;SDS011;10189;49.546;7.906;2024-03-02T10:40:16;11.18;;;8.80;;
20056;SDS011;10189;49.546;7.906;2024-03-02T10:42:42;10.55;;;8.55;;
20056;SDS011;10189;49.546;7.906;2024-03-02T10:45:10;11.70;;;9.05;;
20056;SDS011;10189;49.546;7.906;2024-03-02T10:47:40;10.15;;;8.57;;
20056;SDS011;10189;49.546;7.906;2024-03-02T10:50:08;10.05;;;8.60;;
20056;SDS011;10189;49.546;7.906;2024-03-02T10:52:35;9.90;;;7.68;;
20056;SDS011;10189;49.546;7.906;2024-03-02T10:55:02;9.70;;;7.50;;
20056;SDS011;10189;49.546;7.906;2024-03-02T11:00:21;10.73;;;7.50;;
20056;SDS011;10189;49.546;7.906;2024-03-02T11:03:02;10.68;;;9.07;;
20056;SDS011;10189;49.546;7.906;2024-03-02T11:05:32;9.10;;;8.18;;
20056;SDS011;10189;49.546;7.906;2024-03-02T11:08:02;9.35;;;8.35;;
20056;SDS011;10189;49.546;7.906;2024-03-02T11:13:16;11.32;;;9.50;;
20056;SDS011;10189;49.546;7.906;2024-03-02T11:15:55;10.13;;;8.95;;
20056;SDS011;10189;49.546;7.906;2024-03-02T11:18:44;11.05;;;9.40;;
20056;SDS011;10189;49.546;7.906;2024-03-02T11:21:11;12.05;;;8.50;;
20056;SDS011;10189;49.546;7.906;2024-03-02T11:23:45;9.45;;;7.68;;
20056;SDS011;10189;49.546;7.906;2024-03-02T11:26:18;9.30;;;8.27;;
20056;SDS011;10189;49.546;7.906;2024-03-02T11:28:52;40.50;;;25.58;;
20056;SDS011;10189;49.546;7.906;2024-03-02T11:31:20;10.13;;;8.98;;
20056;SDS011;10189;49.546;7.906;2024-03-02T11:34:50;9.43;;;7.63;;
20056;SDS011;10189;49.546;7.906;2024-03-02T11:37:02;9.77;;;7.80;;
20056;SDS011;10189;49.546;7.906;2024-03-02T11:39:29;9.07;;;8.10;;
20056;SDS011;10189;49.546;7.906;2024-03-02T11:41:56;9.73;;;8.68;;
20056;SDS011;10189;49.546;7.906;2024-03-02T11:44:26;10.32;;;9.18;;
20056;SDS011;10189;49.546;7.906;2024-03-02T11:46:59;8.73;;;7.70;;
20056;SDS011;10189;49.546;7.906;2024-03-02T11:52:07;8.73;;;7.03;;
20056;SDS011;10189;49.546;7.906;2024-03-02T11:54:37;6.38;;;5.78;;
20056;SDS011;10189;49.546;7.906;2024-03-02T11:57:05;7.05;;;6.35;;
20056;SDS011;10189;49.546;7.906;2024-03-02T11:59:34;6.93;;;5.28;;
20056;SDS011;10189;49.546;7.906;2024-03-02T12:02:00;7.28;;;5.20;;
20056;SDS011;10189;49.546;7.906;2024-03-02T12:04:27;6.28;;;5.00;;
20056;SDS011;10189;49.546;7.906;2024-03-02T12:07:00;4.53;;;3.97;;
20056;SDS011;10189;49.546;7.906;2024-03-02T12:09:27;5.45;;;3.80;;
20056;SDS011;10189;49.546;7.906;2024-03-02T12:14:30;4.95;;;3.50;;
20056;SDS011;10189;49.546;7.906;2024-03-02T12:16:58;6.00;;;3.88;;
20056;SDS011;10189;49.546;7.906;2024-03-02T12:19:26;5.70;;;4.65;;
20056;SDS011;10189;49.546;7.906;2024-03-02T12:21:58;5.13;;;4.50;;
20056;SDS011;10189;49.546;7.906;2024-03-02T12:24:28;6.95;;;5.80;;
20056;SDS011;10189;49.546;7.906;2024-03-02T12:26:55;6.90;;;5.45;;
20056;SDS011;10189;49.546;7.906;2024-03-02T12:29:22;5.93;;;5.32;;
20056;SDS011;10189;49.546;7.906;2024-03-02T12:31:49;5.57;;;4.68;;
20056;SDS011;10189;49.546;7.906;2024-03-02T12:34:22;6.45;;;4.07;;
20056;SDS011;10189;49.546;7.906;2024-03-02T12:36:48;4.63;;;4.00;;
20056;SDS011;10189;49.546;7.906;2024-03-02T12:39:18;4.40;;;4.00;;
20056;SDS011;10189;49.546;7.906;2024-03-02T12:41:45;4.03;;;3.38;;
20056;SDS011;10189;49.546;7.906;2024-03-02T12:44:12;3.80;;;3.15;;
20056;SDS011;10189;49.546;7.906;2024-03-02T12:46:38;4.70;;;3.15;;
20056;SDS011;10189;49.546;7.906;2024-03-02T12:49:11;2.97;;;2.53;;
20056;SDS011;10189;49.546;7.906;2024-03-02T12:51:39;4.60;;;3.05;;
20056;SDS011;10189;49.546;7.906;2024-03-02T12:54:06;4.25;;;3.20;;
20056;SDS011;10189;49.546;7.906;2024-03-02T12:56:40;4.38;;;2.58;;
20056;SDS011;10189;49.546;7.906;2024-03-02T12:59:17;2.28;;;1.27;;
20056;SDS011;10189;49.546;7.906;2024-03-02T13:01:53;1.50;;;1.17;;
20056;SDS011;10189;49.546;7.906;2024-03-02T13:04:24;1.40;;;0.77;;
20056;SDS011;10189;49.546;7.906;2024-03-02T13:06:53;1.50;;;1.00;;
20056;SDS011;10189;49.546;7.906;2024-03-02T13:09:22;1.48;;;0.60;;
20056;SDS011;10189;49.546;7.906;2024-03-02T13:11:49;1.05;;;0.52;;
20056;SDS011;10189;49.546;7.906;2024-03-02T13:14:17;0.70;;;0.70;;
20056;SDS011;10189;49.546;7.906;2024-03-02T13:16:44;0.60;;;0.60;;
20056;SDS011;10189;49.546;7.906;2024-03-02T13:19:13;0.77;;;0.55;;
20056;SDS011;10189;49.546;7.906;2024-03-02T13:21:39;0.77;;;0.60;;
20056;SDS011;10189;49.546;7.906;2024-03-02T13:24:05;0.77;;;0.60;;
20056;SDS011;10189;49.546;7.906;2024-03-02T13:26:32;1.45;;;0.45;;
20056;SDS011;10189;49.546;7.906;2024-03-02T13:28:58;1.63;;;0.60;;
20056;SDS011;10189;49.546;7.906;2024-03-02T13:31:24;1.23;;;0.80;;
20056;SDS011;10189;49.546;7.906;2024-03-02T13:33:50;1.00;;;0.90;;
20056;SDS011;10189;49.546;7.906;2024-03-02T13:37:03;2.05;;;1.85;;
20056;SDS011;10189;49.546;7.906;2024-03-02T13:39:31;0.93;;;0.57;;
20056;SDS011;10189;49.546;7.906;2024-03-02T13:41:58;0.77;;;0.63;;
20056;SDS011;10189;49.546;7.906;2024-03-02T13:44:33;0.95;;;0.75;;
20056;SDS011;10189;49.546;7.906;2024-03-02T13:47:00;1.63;;;0.60;;
20056;SDS011;10189;49.546;7.906;2024-03-02T13:49:26;1.33;;;1.02;;
20056;SDS011;10189;49.546;7.906;2024-03-02T13:52:01;3.05;;;2.33;;
20056;SDS011;10189;49.546;7.906;2024-03-02T13:54:44;1.60;;;1.25;;
20056;SDS011;10189;49.546;7.906;2024-03-02T13:57:13;2.17;;;1.30;;
20056;SDS011;10189;49.546;7.906;2024-03-02T13:59:45;3.35;;;2.30;;
20056;SDS011;10189;49.546;7.906;2024-03-02T14:02:11;1.92;;;1.20;;
20056;SDS011;10189;49.546;7.906;2024-03-02T14:04:40;1.60;;;1.15;;
20056;SDS011;10189;49.546;7.906;2024-03-02T14:07:06;0.80;;;0.70;;
20056;SDS011;10189;49.546;7.906;2024-03-02T14:09:33;0.82;;;0.80;;
20056;SDS011;10189;49.546;7.906;2024-03-02T14:11:59;0.60;;;0.50;;
20056;SDS011;10189;49.546;7.906;2024-03-02T14:14:26;0.60;;;0.40;;
20056;SDS011;10189;49.546;7.906;2024-03-02T14:16:52;1.83;;;0.70;;
20056;SDS011;10189;49.546;7.906;2024-03-02T14:19:20;0.50;;;0.50;;
20056;SDS011;10189;49.546;7.906;2024-03-02T14:21:47;0.50;;;0.50;;
20056;SDS011;10189;49.546;7.906;2024-03-02T14:24:13;0.80;;;0.80;;
20056;SDS011;10189;49.546;7.906;2024-03-02T14:26:39;0.47;;;0.47;;
20056;SDS011;10189;49.546;7.906;2024-03-02T14:29:08;2.22;;;1.02;;
20056;SDS011;10189;49.546;7.906;2024-03-02T14:31:37;1.52;;;1.20;;
20056;SDS011;10189;49.546;7.906;2024-03-02T14:34:03;0.82;;;0.65;;
20056;SDS011;10189;49.546;7.906;2024-03-02T14:36:29;0.70;;;0.60;;
20056;SDS011;10189;49.546;7.906;2024-03-02T14:38:55;1.45;;;0.70;;
20056;SDS011;10189;49.546;7.906;2024-03-02T14:41:21;2.00;;;1.20;;
20056;SDS011;10189;49.546;7.906;2024-03-02T14:43:49;1.20;;;1.10;;
20056;SDS011;10189;49.546;7.906;2024-03-02T14:46:15;1.55;;;0.80;;
20056;SDS011;10189;49.546;7.906;2024-03-02T14:48:43;2.15;;;1.13;;
20056;SDS011;10189;49.546;7.906;2024-03-02T14:51:11;2.15;;;0.90;;
20056;SDS011;10189;49.546;7.906;2024-03-02T14:53:38;1.00;;;0.90;;
20056;SDS011;10189;49.546;7.906;2024-03-02T14:56:07;1.33;;;0.88;;
20056;SDS011;10189;49.546;7.906;2024-03-02T14:58:44;2.20;;;1.08;;
20056;SDS011;10189;49.546;7.906;2024-03-02T15:01:10;1.33;;;1.20;;
20056;SDS011;10189;49.546;7.906;2024-03-02T15:03:36;1.58;;;1.20;;
20056;SDS011;10189;49.546;7.906;2024-03-02T15:06:03;1.15;;;1.05;;